Metar Aviation Weather Data EGNR Hawarden

15°C Temp
13°C Dewpoint
88% Humidity
Temperature
10 KM/H
6 MPH
5 KTS
340°
North North
West

Wind Speed
Light Rain
Showers
Pressure 1021 (hPa) - 30.15 (in)
Visibility 5.0 (mi) - 8 (km)

Current Conditions
EGNR
Hawarden
Metar :EGNR 251120Z 34005KT 310V010 8000 -RA FEW030 OVC044 15/13 Q1021
Fri 25th May 12:20 pm

Hawarden
  Metar Aviation API Data Provided by https://www.checkwx.com/ PHP scripts by weather34.com ©2018